sensor_id;sensor_type;location;lat;lon;timestamp;P1;durP1;ratioP1;P2;durP2;ratioP2
30553;SDS011;17335;50.720;7.452;2023-07-31T00:01:12;8.48;;;2.72;;
30553;SDS011;17335;50.720;7.452;2023-07-31T00:03:39;8.32;;;2.22;;
30553;SDS011;17335;50.720;7.452;2023-07-31T00:06:05;8.70;;;2.30;;
30553;SDS011;17335;50.720;7.452;2023-07-31T00:08:32;10.85;;;2.97;;
30553;SDS011;17335;50.720;7.452;2023-07-31T00:10:59;5.85;;;1.92;;
30553;SDS011;17335;50.720;7.452;2023-07-31T00:13:25;6.90;;;2.20;;
30553;SDS011;17335;50.720;7.452;2023-07-31T00:15:52;7.03;;;2.10;;
30553;SDS011;17335;50.720;7.452;2023-07-31T00:18:18;4.18;;;1.80;;
30553;SDS011;17335;50.720;7.452;2023-07-31T00:20:45;4.13;;;1.70;;
30553;SDS011;17335;50.720;7.452;2023-07-31T00:23:11;5.82;;;2.30;;
30553;SDS011;17335;50.720;7.452;2023-07-31T00:25:38;4.70;;;2.25;;
30553;SDS011;17335;50.720;7.452;2023-07-31T00:28:04;5.03;;;1.92;;
30553;SDS011;17335;50.720;7.452;2023-07-31T00:30:31;8.25;;;2.42;;
30553;SDS011;17335;50.720;7.452;2023-07-31T00:32:58;6.00;;;2.42;;
30553;SDS011;17335;50.720;7.452;2023-07-31T00:35:24;4.65;;;2.15;;
30553;SDS011;17335;50.720;7.452;2023-07-31T00:37:51;3.88;;;2.22;;
30553;SDS011;17335;50.720;7.452;2023-07-31T00:40:17;7.22;;;2.33;;
30553;SDS011;17335;50.720;7.452;2023-07-31T00:42:44;5.35;;;2.25;;
30553;SDS011;17335;50.720;7.452;2023-07-31T00:45:10;6.72;;;2.10;;
30553;SDS011;17335;50.720;7.452;2023-07-31T00:47:37;5.50;;;2.15;;
30553;SDS011;17335;50.720;7.452;2023-07-31T00:50:04;6.47;;;2.38;;
30553;SDS011;17335;50.720;7.452;2023-07-31T00:52:32;6.13;;;2.17;;
30553;SDS011;17335;50.720;7.452;2023-07-31T00:54:58;4.85;;;1.90;;
30553;SDS011;17335;50.720;7.452;2023-07-31T00:57:26;4.10;;;2.10;;
30553;SDS011;17335;50.720;7.452;2023-07-31T00:59:52;4.57;;;1.95;;
30553;SDS011;17335;50.720;7.452;2023-07-31T01:02:19;6.63;;;2.15;;
30553;SDS011;17335;50.720;7.452;2023-07-31T01:04:45;4.25;;;1.92;;
30553;SDS011;17335;50.720;7.452;2023-07-31T01:07:27;6.03;;;2.28;;
30553;SDS011;17335;50.720;7.452;2023-07-31T01:12:52;4.85;;;1.90;;
30553;SDS011;17335;50.720;7.452;2023-07-31T01:15:20;6.40;;;2.33;;
30553;SDS011;17335;50.720;7.452;2023-07-31T01:17:48;6.32;;;1.98;;
30553;SDS011;17335;50.720;7.452;2023-07-31T01:20:22;4.72;;;2.00;;
30553;SDS011;17335;50.720;7.452;2023-07-31T01:28:25;4.18;;;1.95;;
30553;SDS011;17335;50.720;7.452;2023-07-31T01:30:57;5.50;;;2.10;;
30553;SDS011;17335;50.720;7.452;2023-07-31T01:33:26;6.93;;;1.95;;
30553;SDS011;17335;50.720;7.452;2023-07-31T01:35:53;6.72;;;2.13;;
30553;SDS011;17335;50.720;7.452;2023-07-31T01:38:21;4.40;;;2.03;;
30553;SDS011;17335;50.720;7.452;2023-07-31T01:43:19;3.92;;;1.60;;
30553;SDS011;17335;50.720;7.452;2023-07-31T01:45:46;7.50;;;2.35;;
30553;SDS011;17335;50.720;7.452;2023-07-31T01:48:13;4.07;;;1.73;;
30553;SDS011;17335;50.720;7.452;2023-07-31T01:50:39;7.00;;;2.40;;
30553;SDS011;17335;50.720;7.452;2023-07-31T01:53:06;5.93;;;2.05;;
30553;SDS011;17335;50.720;7.452;2023-07-31T01:55:32;4.05;;;1.95;;
30553;SDS011;17335;50.720;7.452;2023-07-31T01:57:59;8.65;;;2.22;;
30553;SDS011;17335;50.720;7.452;2023-07-31T02:00:25;6.20;;;2.30;;
30553;SDS011;17335;50.720;7.452;2023-07-31T02:02:52;7.80;;;2.15;;
30553;SDS011;17335;50.720;7.452;2023-07-31T02:05:22;6.95;;;2.17;;
30553;SDS011;17335;50.720;7.452;2023-07-31T02:07:49;5.38;;;2.10;;
30553;SDS011;17335;50.720;7.452;2023-07-31T02:10:16;4.32;;;1.92;;
30553;SDS011;17335;50.720;7.452;2023-07-31T02:12:42;3.80;;;1.90;;
30553;SDS011;17335;50.720;7.452;2023-07-31T02:15:09;4.72;;;1.92;;
30553;SDS011;17335;50.720;7.452;2023-07-31T02:17:35;4.38;;;2.22;;
30553;SDS011;17335;50.720;7.452;2023-07-31T02:20:02;6.13;;;2.38;;
30553;SDS011;17335;50.720;7.452;2023-07-31T02:22:29;5.10;;;2.13;;
30553;SDS011;17335;50.720;7.452;2023-07-31T02:24:56;5.32;;;2.22;;
30553;SDS011;17335;50.720;7.452;2023-07-31T02:27:22;5.93;;;2.03;;
30553;SDS011;17335;50.720;7.452;2023-07-31T02:29:53;6.20;;;2.33;;
30553;SDS011;17335;50.720;7.452;2023-07-31T02:32:21;7.45;;;2.22;;
30553;SDS011;17335;50.720;7.452;2023-07-31T02:34:47;4.15;;;2.15;;
30553;SDS011;17335;50.720;7.452;2023-07-31T02:37:14;7.70;;;2.28;;
30553;SDS011;17335;50.720;7.452;2023-07-31T02:39:40;4.78;;;2.10;;
30553;SDS011;17335;50.720;7.452;2023-07-31T02:42:07;6.05;;;2.13;;
30553;SDS011;17335;50.720;7.452;2023-07-31T02:44:33;5.20;;;2.40;;
30553;SDS011;17335;50.720;7.452;2023-07-31T02:47:00;5.63;;;2.53;;
30553;SDS011;17335;50.720;7.452;2023-07-31T02:49:26;5.85;;;2.72;;
30553;SDS011;17335;50.720;7.452;2023-07-31T02:51:53;5.88;;;2.58;;
30553;SDS011;17335;50.720;7.452;2023-07-31T02:54:19;8.27;;;2.72;;
30553;SDS011;17335;50.720;7.452;2023-07-31T02:56:47;5.90;;;2.40;;
30553;SDS011;17335;50.720;7.452;2023-07-31T02:59:16;6.90;;;2.67;;
30553;SDS011;17335;50.720;7.452;2023-07-31T03:01:43;5.85;;;2.28;;
30553;SDS011;17335;50.720;7.452;2023-07-31T03:04:10;5.63;;;2.47;;
30553;SDS011;17335;50.720;7.452;2023-07-31T03:06:36;7.60;;;3.17;;
30553;SDS011;17335;50.720;7.452;2023-07-31T03:09:03;4.72;;;2.20;;
30553;SDS011;17335;50.720;7.452;2023-07-31T03:11:30;8.02;;;2.47;;
30553;SDS011;17335;50.720;7.452;2023-07-31T03:13:56;9.60;;;2.70;;
30553;SDS011;17335;50.720;7.452;2023-07-31T03:16:23;6.07;;;3.00;;
30553;SDS011;17335;50.720;7.452;2023-07-31T03:18:49;8.55;;;3.10;;
30553;SDS011;17335;50.720;7.452;2023-07-31T03:21:16;4.93;;;2.30;;
30553;SDS011;17335;50.720;7.452;2023-07-31T03:23:42;7.57;;;2.72;;
30553;SDS011;17335;50.720;7.452;2023-07-31T03:26:09;6.43;;;2.17;;
30553;SDS011;17335;50.720;7.452;2023-07-31T03:28:36;5.80;;;2.50;;
30553;SDS011;17335;50.720;7.452;2023-07-31T03:31:03;4.20;;;2.55;;
30553;SDS011;17335;50.720;7.452;2023-07-31T03:33:30;5.35;;;2.40;;
30553;SDS011;17335;50.720;7.452;2023-07-31T03:35:56;9.80;;;2.65;;
30553;SDS011;17335;50.720;7.452;2023-07-31T03:38:23;6.38;;;2.92;;
30553;SDS011;17335;50.720;7.452;2023-07-31T03:40:50;10.38;;;2.95;;
30553;SDS011;17335;50.720;7.452;2023-07-31T03:43:16;5.63;;;2.10;;
30553;SDS011;17335;50.720;7.452;2023-07-31T03:45:43;6.93;;;2.53;;
30553;SDS011;17335;50.720;7.452;2023-07-31T03:48:09;7.78;;;3.03;;
30553;SDS011;17335;50.720;7.452;2023-07-31T03:50:36;5.55;;;2.17;;
30553;SDS011;17335;50.720;7.452;2023-07-31T03:53:02;5.50;;;2.53;;
30553;SDS011;17335;50.720;7.452;2023-07-31T03:55:29;5.63;;;2.20;;
30553;SDS011;17335;50.720;7.452;2023-07-31T03:57:56;6.50;;;2.55;;
30553;SDS011;17335;50.720;7.452;2023-07-31T04:00:22;6.07;;;2.53;;
30553;SDS011;17335;50.720;7.452;2023-07-31T04:02:49;4.93;;;2.33;;
30553;SDS011;17335;50.720;7.452;2023-07-31T04:05:15;6.35;;;2.38;;
30553;SDS011;17335;50.720;7.452;2023-07-31T04:07:42;5.20;;;2.30;;
30553;SDS011;17335;50.720;7.452;2023-07-31T04:10:09;5.60;;;2.40;;
30553;SDS011;17335;50.720;7.452;2023-07-31T04:12:39;7.20;;;2.13;;
30553;SDS011;17335;50.720;7.452;2023-07-31T04:15:06;7.68;;;2.50;;
30553;SDS011;17335;50.720;7.452;2023-07-31T04:17:33;6.90;;;2.92;;
30553;SDS011;17335;50.720;7.452;2023-07-31T04:20:00;6.00;;;2.30;;
30553;SDS011;17335;50.720;7.452;2023-07-31T04:22:27;8.93;;;2.78;;
30553;SDS011;17335;50.720;7.452;2023-07-31T04:24:53;5.72;;;2.08;;
30553;SDS011;17335;50.720;7.452;2023-07-31T04:27:20;8.05;;;2.53;;
30553;SDS011;17335;50.720;7.452;2023-07-31T04:29:46;8.55;;;2.42;;
30553;SDS011;17335;50.720;7.452;2023-07-31T04:32:14;6.07;;;2.33;;
30553;SDS011;17335;50.720;7.452;2023-07-31T04:34:43;6.10;;;2.22;;
30553;SDS011;17335;50.720;7.452;2023-07-31T04:37:10;6.20;;;2.47;;
30553;SDS011;17335;50.720;7.452;2023-07-31T04:39:36;5.65;;;2.55;;
30553;SDS011;17335;50.720;7.452;2023-07-31T04:42:03;6.25;;;2.40;;
30553;SDS011;17335;50.720;7.452;2023-07-31T04:44:29;6.93;;;2.20;;
30553;SDS011;17335;50.720;7.452;2023-07-31T04:46:56;6.82;;;2.50;;
30553;SDS011;17335;50.720;7.452;2023-07-31T04:49:23;7.93;;;2.35;;
30553;SDS011;17335;50.720;7.452;2023-07-31T04:51:49;9.27;;;2.65;;
30553;SDS011;17335;50.720;7.452;2023-07-31T04:54:16;6.95;;;2.40;;
30553;SDS011;17335;50.720;7.452;2023-07-31T04:56:43;5.22;;;2.00;;
30553;SDS011;17335;50.720;7.452;2023-07-31T04:59:09;12.93;;;2.38;;
30553;SDS011;17335;50.720;7.452;2023-07-31T05:01:36;5.22;;;2.10;;
30553;SDS011;17335;50.720;7.452;2023-07-31T05:04:02;8.20;;;2.20;;
30553;SDS011;17335;50.720;7.452;2023-07-31T05:06:29;5.63;;;2.40;;
30553;SDS011;17335;50.720;7.452;2023-07-31T05:08:56;6.78;;;2.40;;
30553;SDS011;17335;50.720;7.452;2023-07-31T05:11:22;8.73;;;2.10;;
30553;SDS011;17335;50.720;7.452;2023-07-31T05:13:49;8.25;;;2.50;;
30553;SDS011;17335;50.720;7.452;2023-07-31T05:16:15;7.70;;;2.63;;
30553;SDS011;17335;50.720;7.452;2023-07-31T05:18:43;4.22;;;2.42;;
30553;SDS011;17335;50.720;7.452;2023-07-31T05:21:09;6.20;;;2.60;;
30553;SDS011;17335;50.720;7.452;2023-07-31T05:23:36;4.07;;;2.15;;
30553;SDS011;17335;50.720;7.452;2023-07-31T05:26:03;7.15;;;2.45;;
30553;SDS011;17335;50.720;7.452;2023-07-31T05:28:34;6.47;;;2.50;;
30553;SDS011;17335;50.720;7.452;2023-07-31T05:31:01;4.45;;;2.22;;
30553;SDS011;17335;50.720;7.452;2023-07-31T05:33:29;5.72;;;2.28;;
30553;SDS011;17335;50.720;7.452;2023-07-31T05:35:55;6.85;;;2.45;;
30553;SDS011;17335;50.720;7.452;2023-07-31T05:38:22;6.50;;;2.60;;
30553;SDS011;17335;50.720;7.452;2023-07-31T05:40:49;4.90;;;2.00;;
30553;SDS011;17335;50.720;7.452;2023-07-31T05:43:16;5.38;;;2.50;;
30553;SDS011;17335;50.720;7.452;2023-07-31T05:45:42;9.85;;;2.90;;
30553;SDS011;17335;50.720;7.452;2023-07-31T05:48:09;6.03;;;2.35;;
30553;SDS011;17335;50.720;7.452;2023-07-31T05:50:36;6.72;;;2.70;;
30553;SDS011;17335;50.720;7.452;2023-07-31T05:53:05;5.45;;;2.40;;
30553;SDS011;17335;50.720;7.452;2023-07-31T05:55:34;7.72;;;2.85;;
30553;SDS011;17335;50.720;7.452;2023-07-31T05:58:00;6.50;;;2.75;;
30553;SDS011;17335;50.720;7.452;2023-07-31T06:00:27;7.88;;;2.63;;
30553;SDS011;17335;50.720;7.452;2023-07-31T06:02:54;9.00;;;2.83;;
30553;SDS011;17335;50.720;7.452;2023-07-31T06:05:20;5.95;;;2.78;;
30553;SDS011;17335;50.720;7.452;2023-07-31T06:07:47;7.03;;;2.67;;
30553;SDS011;17335;50.720;7.452;2023-07-31T06:10:14;8.75;;;2.53;;
30553;SDS011;17335;50.720;7.452;2023-07-31T06:12:40;6.90;;;2.63;;
30553;SDS011;17335;50.720;7.452;2023-07-31T06:15:07;4.60;;;2.47;;
30553;SDS011;17335;50.720;7.452;2023-07-31T06:17:33;5.57;;;2.90;;
30553;SDS011;17335;50.720;7.452;2023-07-31T06:20:00;7.60;;;2.63;;
30553;SDS011;17335;50.720;7.452;2023-07-31T06:22:27;6.13;;;2.55;;
30553;SDS011;17335;50.720;7.452;2023-07-31T06:24:53;6.93;;;2.40;;
30553;SDS011;17335;50.720;7.452;2023-07-31T06:27:20;5.13;;;2.70;;
30553;SDS011;17335;50.720;7.452;2023-07-31T06:29:46;10.82;;;2.88;;
30553;SDS011;17335;50.720;7.452;2023-07-31T06:32:14;6.80;;;2.83;;
30553;SDS011;17335;50.720;7.452;2023-07-31T06:34:40;5.70;;;2.47;;
30553;SDS011;17335;50.720;7.452;2023-07-31T06:37:07;4.93;;;2.47;;
30553;SDS011;17335;50.720;7.452;2023-07-31T06:39:34;5.32;;;2.72;;
30553;SDS011;17335;50.720;7.452;2023-07-31T06:42:00;5.50;;;2.55;;
30553;SDS011;17335;50.720;7.452;2023-07-31T06:44:27;6.18;;;2.55;;
30553;SDS011;17335;50.720;7.452;2023-07-31T06:46:53;5.93;;;2.58;;
30553;SDS011;17335;50.720;7.452;2023-07-31T06:49:20;4.55;;;2.45;;
30553;SDS011;17335;50.720;7.452;2023-07-31T06:51:47;8.10;;;2.83;;
30553;SDS011;17335;50.720;7.452;2023-07-31T06:54:13;6.38;;;2.90;;
30553;SDS011;17335;50.720;7.452;2023-07-31T06:56:40;8.43;;;2.42;;
30553;SDS011;17335;50.720;7.452;2023-07-31T06:59:07;6.10;;;2.75;;
30553;SDS011;17335;50.720;7.452;2023-07-31T07:01:34;7.30;;;3.38;;
30553;SDS011;17335;50.720;7.452;2023-07-31T07:04:00;6.20;;;2.60;;
30553;SDS011;17335;50.720;7.452;2023-07-31T07:06:27;6.72;;;2.75;;
30553;SDS011;17335;50.720;7.452;2023-07-31T07:08:54;9.98;;;3.00;;
30553;SDS011;17335;50.720;7.452;2023-07-31T07:11:20;6.43;;;3.05;;
30553;SDS011;17335;50.720;7.452;2023-07-31T07:13:47;7.15;;;3.08;;
30553;SDS011;17335;50.720;7.452;2023-07-31T07:16:14;8.30;;;2.85;;
30553;SDS011;17335;50.720;7.452;2023-07-31T07:18:40;8.18;;;2.65;;
30553;SDS011;17335;50.720;7.452;2023-07-31T07:21:27;8.20;;;3.00;;
30553;SDS011;17335;50.720;7.452;2023-07-31T07:23:54;11.15;;;2.90;;
30553;SDS011;17335;50.720;7.452;2023-07-31T07:26:20;6.38;;;3.03;;
30553;SDS011;17335;50.720;7.452;2023-07-31T07:28:47;6.00;;;2.97;;
30553;SDS011;17335;50.720;7.452;2023-07-31T07:31:14;7.80;;;3.15;;
30553;SDS011;17335;50.720;7.452;2023-07-31T07:33:42;6.40;;;2.80;;
30553;SDS011;17335;50.720;7.452;2023-07-31T07:36:09;7.80;;;3.25;;
30553;SDS011;17335;50.720;7.452;2023-07-31T07:38:36;6.60;;;3.42;;
30553;SDS011;17335;50.720;7.452;2023-07-31T07:41:03;7.15;;;2.95;;
30553;SDS011;17335;50.720;7.452;2023-07-31T07:43:30;7.88;;;2.85;;
30553;SDS011;17335;50.720;7.452;2023-07-31T07:45:56;6.30;;;2.97;;
30553;SDS011;17335;50.720;7.452;2023-07-31T07:48:23;9.35;;;3.38;;
30553;SDS011;17335;50.720;7.452;2023-07-31T07:50:51;7.05;;;2.63;;
30553;SDS011;17335;50.720;7.452;2023-07-31T07:53:17;7.13;;;3.30;;
30553;SDS011;17335;50.720;7.452;2023-07-31T07:55:44;7.93;;;2.75;;
30553;SDS011;17335;50.720;7.452;2023-07-31T07:58:10;8.63;;;3.10;;
30553;SDS011;17335;50.720;7.452;2023-07-31T08:00:37;9.02;;;3.17;;
30553;SDS011;17335;50.720;7.452;2023-07-31T08:03:04;9.10;;;3.05;;
30553;SDS011;17335;50.720;7.452;2023-07-31T08:05:31;8.07;;;3.10;;
30553;SDS011;17335;50.720;7.452;2023-07-31T08:08:00;10.85;;;3.10;;
30553;SDS011;17335;50.720;7.452;2023-07-31T08:10:27;9.20;;;3.45;;
30553;SDS011;17335;50.720;7.452;2023-07-31T08:12:53;5.60;;;2.80;;
30553;SDS011;17335;50.720;7.452;2023-07-31T08:15:20;8.60;;;3.05;;
30553;SDS011;17335;50.720;7.452;2023-07-31T08:17:46;13.43;;;3.63;;
30553;SDS011;17335;50.720;7.452;2023-07-31T08:20:13;7.15;;;3.35;;
30553;SDS011;17335;50.720;7.452;2023-07-31T08:22:40;8.25;;;2.88;;
30553;SDS011;17335;50.720;7.452;2023-07-31T08:25:07;11.82;;;3.25;;
30553;SDS011;17335;50.720;7.452;2023-07-31T08:27:34;5.63;;;2.80;;
30553;SDS011;17335;50.720;7.452;2023-07-31T08:30:00;9.02;;;3.22;;
30553;SDS011;17335;50.720;7.452;2023-07-31T08:32:27;10.15;;;2.90;;
30553;SDS011;17335;50.720;7.452;2023-07-31T08:34:53;8.18;;;3.47;;
30553;SDS011;17335;50.720;7.452;2023-07-31T08:37:20;8.75;;;2.90;;
30553;SDS011;17335;50.720;7.452;2023-07-31T08:39:46;6.72;;;3.05;;
30553;SDS011;17335;50.720;7.452;2023-07-31T08:42:13;11.35;;;3.15;;
30553;SDS011;17335;50.720;7.452;2023-07-31T08:44:40;6.72;;;3.28;;
30553;SDS011;17335;50.720;7.452;2023-07-31T08:47:07;7.50;;;3.55;;
30553;SDS011;17335;50.720;7.452;2023-07-31T08:49:34;7.35;;;3.08;;
30553;SDS011;17335;50.720;7.452;2023-07-31T08:52:01;7.50;;;3.50;;
30553;SDS011;17335;50.720;7.452;2023-07-31T08:54:29;8.98;;;3.67;;
30553;SDS011;17335;50.720;7.452;2023-07-31T08:56:57;10.20;;;3.72;;
30553;SDS011;17335;50.720;7.452;2023-07-31T08:59:27;5.82;;;2.67;;
30553;SDS011;17335;50.720;7.452;2023-07-31T09:01:57;7.28;;;3.58;;
30553;SDS011;17335;50.720;7.452;2023-07-31T09:04:29;5.93;;;2.92;;
30553;SDS011;17335;50.720;7.452;2023-07-31T09:06:59;7.03;;;2.97;;
30553;SDS011;17335;50.720;7.452;2023-07-31T09:09:27;7.20;;;3.28;;
30553;SDS011;17335;50.720;7.452;2023-07-31T09:11:53;8.77;;;3.22;;
30553;SDS011;17335;50.720;7.452;2023-07-31T09:14:21;9.98;;;3.33;;
30553;SDS011;17335;50.720;7.452;2023-07-31T09:17:06;8.38;;;3.60;;
30553;SDS011;17335;50.720;7.452;2023-07-31T09:19:33;8.40;;;3.55;;
30553;SDS011;17335;50.720;7.452;2023-07-31T09:22:04;10.55;;;3.15;;
30553;SDS011;17335;50.720;7.452;2023-07-31T09:24:32;6.10;;;3.45;;
30553;SDS011;17335;50.720;7.452;2023-07-31T09:27:00;11.30;;;3.40;;
30553;SDS011;17335;50.720;7.452;2023-07-31T09:29:27;9.20;;;3.38;;
30553;SDS011;17335;50.720;7.452;2023-07-31T09:31:57;11.02;;;3.00;;
30553;SDS011;17335;50.720;7.452;2023-07-31T09:34:29;10.65;;;3.72;;
30553;SDS011;17335;50.720;7.452;2023-07-31T09:37:03;8.23;;;3.47;;
30553;SDS011;17335;50.720;7.452;2023-07-31T09:39:31;7.05;;;3.53;;
30553;SDS011;17335;50.720;7.452;2023-07-31T09:41:57;8.50;;;3.80;;
30553;SDS011;17335;50.720;7.452;2023-07-31T09:44:40;9.50;;;3.20;;
30553;SDS011;17335;50.720;7.452;2023-07-31T09:47:20;8.25;;;2.75;;
30553;SDS011;17335;50.720;7.452;2023-07-31T09:49:50;8.55;;;2.95;;
30553;SDS011;17335;50.720;7.452;2023-07-31T09:52:19;8.05;;;3.20;;
30553;SDS011;17335;50.720;7.452;2023-07-31T09:54:46;9.75;;;3.33;;
30553;SDS011;17335;50.720;7.452;2023-07-31T10:29:27;6.85;;;3.58;;
30553;SDS011;17335;50.720;7.452;2023-07-31T10:31:57;7.50;;;3.30;;
30553;SDS011;17335;50.720;7.452;2023-07-31T10:34:24;8.02;;;2.92;;
30553;SDS011;17335;50.720;7.452;2023-07-31T10:37:14;7.40;;;3.05;;
30553;SDS011;17335;50.720;7.452;2023-07-31T10:39:58;7.03;;;3.30;;
30553;SDS011;17335;50.720;7.452;2023-07-31T10:42:47;5.95;;;3.13;;
30553;SDS011;17335;50.720;7.452;2023-07-31T10:48:00;5.80;;;2.85;;
30553;SDS011;17335;50.720;7.452;2023-07-31T10:50:30;7.05;;;3.83;;
30553;SDS011;17335;50.720;7.452;2023-07-31T10:53:01;5.10;;;2.60;;
30553;SDS011;17335;50.720;7.452;2023-07-31T10:55:28;9.18;;;3.28;;
30553;SDS011;17335;50.720;7.452;2023-07-31T10:58:06;7.22;;;3.30;;
30553;SDS011;17335;50.720;7.452;2023-07-31T11:00:54;8.73;;;3.13;;
30553;SDS011;17335;50.720;7.452;2023-07-31T11:03:25;5.57;;;2.70;;
30553;SDS011;17335;50.720;7.452;2023-07-31T11:05:59;7.93;;;2.92;;
30553;SDS011;17335;50.720;7.452;2023-07-31T11:08:32;7.78;;;2.97;;
30553;SDS011;17335;50.720;7.452;2023-07-31T11:13:30;5.57;;;2.42;;
30553;SDS011;17335;50.720;7.452;2023-07-31T11:15:57;6.47;;;2.70;;
30553;SDS011;17335;50.720;7.452;2023-07-31T11:18:25;6.32;;;2.60;;
30553;SDS011;17335;50.720;7.452;2023-07-31T11:20:53;5.55;;;2.40;;
30553;SDS011;17335;50.720;7.452;2023-07-31T11:23:20;4.70;;;2.25;;
30553;SDS011;17335;50.720;7.452;2023-07-31T11:25:48;4.88;;;2.30;;
30553;SDS011;17335;50.720;7.452;2023-07-31T11:28:15;3.90;;;2.10;;
30553;SDS011;17335;50.720;7.452;2023-07-31T11:30:43;6.38;;;2.10;;
30553;SDS011;17335;50.720;7.452;2023-07-31T11:33:12;5.28;;;2.17;;
30553;SDS011;17335;50.720;7.452;2023-07-31T11:38:20;8.18;;;1.85;;
30553;SDS011;17335;50.720;7.452;2023-07-31T11:40:52;3.53;;;1.83;;
30553;SDS011;17335;50.720;7.452;2023-07-31T11:43:20;4.00;;;1.98;;
30553;SDS011;17335;50.720;7.452;2023-07-31T11:45:48;3.83;;;1.70;;
30553;SDS011;17335;50.720;7.452;2023-07-31T11:48:19;4.60;;;1.90;;
30553;SDS011;17335;50.720;7.452;2023-07-31T11:50:57;4.38;;;1.63;;
30553;SDS011;17335;50.720;7.452;2023-07-31T11:53:26;3.90;;;1.88;;
30553;SDS011;17335;50.720;7.452;2023-07-31T11:55:59;2.15;;;1.30;;
30553;SDS011;17335;50.720;7.452;2023-07-31T11:58:27;3.92;;;1.40;;
30553;SDS011;17335;50.720;7.452;2023-07-31T12:00:55;2.80;;;1.63;;
30553;SDS011;17335;50.720;7.452;2023-07-31T12:03:23;3.95;;;1.60;;
30553;SDS011;17335;50.720;7.452;2023-07-31T12:05:50;5.40;;;1.60;;
30553;SDS011;17335;50.720;7.452;2023-07-31T12:08:16;5.82;;;1.83;;
30553;SDS011;17335;50.720;7.452;2023-07-31T12:10:43;6.65;;;1.67;;
30553;SDS011;17335;50.720;7.452;2023-07-31T12:13:12;3.47;;;1.67;;
30553;SDS011;17335;50.720;7.452;2023-07-31T12:15:47;6.38;;;2.05;;
30553;SDS011;17335;50.720;7.452;2023-07-31T12:18:14;5.07;;;1.42;;
30553;SDS011;17335;50.720;7.452;2023-07-31T12:20:49;3.65;;;1.70;;
30553;SDS011;17335;50.720;7.452;2023-07-31T12:23:22;9.18;;;1.55;;
30553;SDS011;17335;50.720;7.452;2023-07-31T12:28:26;4.82;;;1.70;;
30553;SDS011;17335;50.720;7.452;2023-07-31T12:30:56;2.42;;;1.10;;
30553;SDS011;17335;50.720;7.452;2023-07-31T12:33:29;2.83;;;1.10;;
30553;SDS011;17335;50.720;7.452;2023-07-31T12:35:57;3.40;;;1.35;;
30553;SDS011;17335;50.720;7.452;2023-07-31T12:38:24;4.78;;;1.33;;
30553;SDS011;17335;50.720;7.452;2023-07-31T12:40:51;2.25;;;1.23;;
30553;SDS011;17335;50.720;7.452;2023-07-31T12:43:17;4.03;;;1.38;;
30553;SDS011;17335;50.720;7.452;2023-07-31T12:45:44;4.35;;;1.60;;
30553;SDS011;17335;50.720;7.452;2023-07-31T12:48:10;4.65;;;1.63;;
30553;SDS011;17335;50.720;7.452;2023-07-31T12:50:38;3.20;;;1.67;;
30553;SDS011;17335;50.720;7.452;2023-07-31T12:53:05;4.43;;;1.77;;
30553;SDS011;17335;50.720;7.452;2023-07-31T12:55:32;4.68;;;1.98;;
30553;SDS011;17335;50.720;7.452;2023-07-31T12:58:00;4.43;;;1.95;;
30553;SDS011;17335;50.720;7.452;2023-07-31T13:00:27;5.30;;;2.30;;
30553;SDS011;17335;50.720;7.452;2023-07-31T13:02:54;4.03;;;2.08;;
30553;SDS011;17335;50.720;7.452;2023-07-31T13:05:21;7.18;;;2.92;;
30553;SDS011;17335;50.720;7.452;2023-07-31T13:07:47;6.82;;;2.78;;
30553;SDS011;17335;50.720;7.452;2023-07-31T13:10:18;5.80;;;2.83;;
30553;SDS011;17335;50.720;7.452;2023-07-31T13:12:44;5.47;;;2.70;;
30553;SDS011;17335;50.720;7.452;2023-07-31T13:15:11;6.47;;;2.72;;
30553;SDS011;17335;50.720;7.452;2023-07-31T13:17:38;10.85;;;2.72;;
30553;SDS011;17335;50.720;7.452;2023-07-31T13:20:04;8.38;;;3.28;;
30553;SDS011;17335;50.720;7.452;2023-07-31T13:22:31;7.50;;;3.05;;
30553;SDS011;17335;50.720;7.452;2023-07-31T13:24:58;6.65;;;3.28;;
30553;SDS011;17335;50.720;7.452;2023-07-31T13:27:24;5.38;;;2.88;;
30553;SDS011;17335;50.720;7.452;2023-07-31T13:29:51;5.85;;;2.33;;
30553;SDS011;17335;50.720;7.452;2023-07-31T13:32:18;5.82;;;2.95;;
30553;SDS011;17335;50.720;7.452;2023-07-31T13:34:46;5.72;;;2.97;;
30553;SDS011;17335;50.720;7.452;2023-07-31T13:37:13;6.95;;;2.70;;
30553;SDS011;17335;50.720;7.452;2023-07-31T13:39:41;10.13;;;2.90;;
30553;SDS011;17335;50.720;7.452;2023-07-31T13:42:08;6.07;;;2.60;;
30553;SDS011;17335;50.720;7.452;2023-07-31T13:44:38;6.30;;;3.00;;
30553;SDS011;17335;50.720;7.452;2023-07-31T13:47:05;6.60;;;2.63;;
30553;SDS011;17335;50.720;7.452;2023-07-31T13:49:32;5.22;;;2.70;;
30553;SDS011;17335;50.720;7.452;2023-07-31T13:51:59;7.72;;;2.65;;
30553;SDS011;17335;50.720;7.452;2023-07-31T13:54:26;4.63;;;2.58;;
30553;SDS011;17335;50.720;7.452;2023-07-31T13:56:56;4.82;;;2.50;;
30553;SDS011;17335;50.720;7.452;2023-07-31T13:59:23;5.57;;;2.42;;
30553;SDS011;17335;50.720;7.452;2023-07-31T14:01:49;4.80;;;1.98;;
30553;SDS011;17335;50.720;7.452;2023-07-31T14:04:16;2.88;;;1.77;;
30553;SDS011;17335;50.720;7.452;2023-07-31T14:06:44;5.10;;;1.95;;
30553;SDS011;17335;50.720;7.452;2023-07-31T14:09:10;5.35;;;2.13;;
30553;SDS011;17335;50.720;7.452;2023-07-31T14:11:37;4.55;;;2.00;;
30553;SDS011;17335;50.720;7.452;2023-07-31T14:14:08;5.35;;;1.90;;
30553;SDS011;17335;50.720;7.452;2023-07-31T14:16:38;3.63;;;1.73;;
30553;SDS011;17335;50.720;7.452;2023-07-31T14:19:06;3.60;;;2.00;;
30553;SDS011;17335;50.720;7.452;2023-07-31T14:21:34;3.85;;;2.17;;
30553;SDS011;17335;50.720;7.452;2023-07-31T14:24:01;4.65;;;2.03;;
30553;SDS011;17335;50.720;7.452;2023-07-31T14:26:28;3.67;;;1.80;;
30553;SDS011;17335;50.720;7.452;2023-07-31T14:28:54;3.38;;;1.80;;
30553;SDS011;17335;50.720;7.452;2023-07-31T14:31:21;6.30;;;1.77;;
30553;SDS011;17335;50.720;7.452;2023-07-31T14:33:47;3.78;;;1.83;;
30553;SDS011;17335;50.720;7.452;2023-07-31T14:36:14;4.53;;;2.17;;
30553;SDS011;17335;50.720;7.452;2023-07-31T14:38:41;3.63;;;1.70;;
30553;SDS011;17335;50.720;7.452;2023-07-31T14:41:08;4.32;;;1.70;;
30553;SDS011;17335;50.720;7.452;2023-07-31T14:43:34;4.55;;;1.70;;
30553;SDS011;17335;50.720;7.452;2023-07-31T14:46:01;3.88;;;1.80;;
30553;SDS011;17335;50.720;7.452;2023-07-31T14:48:28;3.97;;;2.03;;
30553;SDS011;17335;50.720;7.452;2023-07-31T14:50:55;4.38;;;1.70;;
30553;SDS011;17335;50.720;7.452;2023-07-31T14:53:22;3.88;;;1.80;;
30553;SDS011;17335;50.720;7.452;2023-07-31T14:55:48;4.63;;;1.80;;
30553;SDS011;17335;50.720;7.452;2023-07-31T14:58:15;3.75;;;1.67;;
30553;SDS011;17335;50.720;7.452;2023-07-31T15:00:43;3.20;;;1.40;;
30553;SDS011;17335;50.720;7.452;2023-07-31T15:03:10;12.73;;;2.33;;
30553;SDS011;17335;50.720;7.452;2023-07-31T15:05:37;5.50;;;1.83;;
30553;SDS011;17335;50.720;7.452;2023-07-31T15:08:04;2.95;;;1.63;;
30553;SDS011;17335;50.720;7.452;2023-07-31T15:10:30;4.03;;;1.70;;
30553;SDS011;17335;50.720;7.452;2023-07-31T15:12:58;4.35;;;2.00;;
30553;SDS011;17335;50.720;7.452;2023-07-31T15:15:24;3.63;;;1.75;;
30553;SDS011;17335;50.720;7.452;2023-07-31T15:17:51;4.47;;;1.60;;
30553;SDS011;17335;50.720;7.452;2023-07-31T15:20:18;4.88;;;1.63;;
30553;SDS011;17335;50.720;7.452;2023-07-31T15:22:44;4.82;;;1.70;;
30553;SDS011;17335;50.720;7.452;2023-07-31T15:25:11;4.30;;;1.85;;
30553;SDS011;17335;50.720;7.452;2023-07-31T15:27:37;4.55;;;1.90;;
30553;SDS011;17335;50.720;7.452;2023-07-31T15:30:04;3.75;;;1.70;;
30553;SDS011;17335;50.720;7.452;2023-07-31T15:32:31;5.15;;;1.80;;
30553;SDS011;17335;50.720;7.452;2023-07-31T15:34:58;4.05;;;1.80;;
30553;SDS011;17335;50.720;7.452;2023-07-31T15:37:25;5.53;;;2.03;;
30553;SDS011;17335;50.720;7.452;2023-07-31T15:39:52;3.42;;;1.67;;
30553;SDS011;17335;50.720;7.452;2023-07-31T15:42:19;3.55;;;1.70;;
30553;SDS011;17335;50.720;7.452;2023-07-31T15:44:46;3.97;;;1.80;;